Aérodrome :
LOGIN :

S'inscrire | Disclaimer

   EN    FR    IT 

 










Légende :    VFR   VFR Marginal   IFR   IFR Intensif   IFR Très Intensif
Visi : 
Plafond : 
>= 8 km
>= 3000ft
5 à 8 km
1000 à 3000 ft
1500m à 5 km
500 à 1000 ft
800 à 1500m
200 à 500 ft
< 800m
< 200 ft
Symboles :   Orages  Brouillard  Fortes neiges  Fortes précipitations  Vent > 20 kt
SIGMETs :   Divers  Orages  Givrage  Turbulence  Onde Orograph.  Cendres Volcan.







- Altitude de l'aérodrome : 184 ft
- Code IATA : BRU


EBBR - Bruxelles

DERNIER METAR :
  • 251450Z 07004KT 040V110 9999 FEW034 19/12 Q1020 NOSIG

METARs EXPIRÉS :
  • 251420Z 07004KT 040V110 9999 FEW034 19/11 Q1019 NOSIG
  • 251350Z 08004KT 040V130 9999 FEW034 19/11 Q1019 NOSIG
  • 251320Z 07006KT 030V110 9999 FEW034 19/11 Q1020 NOSIG
  • 251250Z 06005KT 020V110 9999 FEW034 19/12 Q1020 NOSIG
  • 251220Z 08004KT 020V120 9999 FEW032 18/11 Q1020 NOSIG

TAF TAF EBBR
Valide du 25 à 12h jusqu'au 26 à 18h UTC


251110Z 2512/2618 07006KT 9999 FEW030
BECMG 2600/2602 2500 BR
PROB40
TEMPO 2603/2609 0500 FG BKN001
BECMG 2608/2610 8000 NSW SCT015
Pas de NOTAMs connus pour ce terrain.



MET'MAP, la Météo Aéronautique d'un coup d'oeil ! - Copyright ORBIFLY Décembre 2007 - Disclaimer

ORBIFLY MET'MAP TEAM :

Programmation & Développement : Alexandra Zaïnal
Conception & Développement : Baudouin d'Aumeries
Co-Programmation & Développement : Marc-Olivier Méhu
Soutien technique & logistique : Manuel Goepfert

Contact : metmap@orbifly.com




SOURCES & CREDITS :

   NOAA